Current | Forecast
Updated: 2:00 PM JST on February 21, 2018
Observed at Hakodate Airport, Japan
Temperature 23°F
Windchill 8°F
Humidity 59%
Dew Point 10°F
Wind WNW at 21 mph
Pressure 29.92 in (Steady)
Conditions Scattered Clouds
Visibility 6.2 miles
UV 2 out of 16
Clouds (FEW) : 2000 ft
Scattered Clouds (SCT) : 5000 ft
Yesterday's Maximum 27°F
Yesterday's Minimum 21°F approx.
Yesterday's Heating Degree Days 41 approx.
Sunrise6:23 AM JST
Sunset5:16 PM JST
Moon Rise9:15 AM JST
Moon Set10:44 PM JST
Moon PhaseMoon Phase
Waxing Crescent
Raw METARMETAR RJCH 210500Z 29018KT 9999 FEW020 SCT050 M05/M12 Q1013


Monday
. High: 60° F.
Tuesday
. High: 62° F.
Wednesday
. High: 59° F.
Thursday
. High: 62° F.
Friday
. High: 60° F.
Saturday
. High: 55° F.
Sunday
. High: 62° F.
Monday
. High: 57° F.

Units: English | Metric

Find the Weather for any City, State or Zipcode, or Country:

U.S. State List | Severe Weather | Tropical Storms | Ski Conditions
United States | Canada | Central America | South America | Asia | Europe | Australia | Africa | Islands

Weather Underground

© Copyright 2018
The Weather Company, LLC